METAR (acronimo di METeorological Air Report) è un messaggio meteo emesso nella maggior parte dei casi in ambito aeroportuale

CYYZ - Toronto-Pearson, Ontario, Canada
Ultimo Aggiornamento: Domenica 27 Settembre 2020 18:00 CEST
Parzialmente Nuvoloso
Parzialmente Nuvoloso
 Wind from Sud-Sud-Ovest
Vento: Sud-Sud-Ovest 30 km/h, Raffica: 39 km/h
Temperatura: 24°C
Punto di Rugiada: 16°C
Umidità: 61%
Barometro: 1007.1 hPa
Nuvole: Parzialmente Nuvoloso
Visibilità: 24 km
Nuvole nel Dettaglio: Parzialmente Nuvoloso 7620 m
2020/09/27 16:00 CYYZ 271600Z 20016G21KT 15SM SCT250 24/16 A2974 RMK CI3 SLP071 DENSITY ALT 2000FT
CYHZ - Halifax, Nova Scotia, Canada
Ultimo Aggiornamento: Domenica 27 Settembre 2020 18:00 CEST
Prevalentemente Nuvoloso
Prevalentemente Nuvoloso
 Wind from Sud
Vento: Sud 17 km/h
Temperatura: 20°C
Punto di Rugiada: 17°C
Umidità: 83%
Barometro: 1019.6 hPa
Nuvole: Prevalentemente Nuvoloso
Visibilità: 24 km
Nuvole nel Dettaglio: Qualche Nuvola 274 m
Prevalentemente Nuvoloso 701 m
2020/09/27 16:00 CYHZ 271600Z 19009KT 15SM FEW009 BKN023 20/17 A3011 RMK SF2SC4 SLP198 DENSITY ALT 900FT
CYOW - Ottawa, Ontario, Canada
Ultimo Aggiornamento: Domenica 27 Settembre 2020 18:00 CEST
Prevalentemente Nuvoloso
Prevalentemente Nuvoloso
 Wind from Sud
Vento: Sud 24 km/h, Raffica: 33 km/h
Temperatura: 22°C
Punto di Rugiada: 17°C
Umidità: 73%
Barometro: 1008.1 hPa
Nuvole: Prevalentemente Nuvoloso
Visibilità: 24 km
Nuvole nel Dettaglio: Qualche Nuvola 762 m
Parzialmente Nuvoloso 5486 m
Prevalentemente Nuvoloso 6401 m
2020/09/27 16:00 CYOW 271600Z 19013G18KT 15SM FEW025 SCT180 BKN210 22/17 A2977 RMK CU1AC3CI3 CU TR SLP083 DENSITY ALT 1500FT
 
PANC - Anchorage, Alaska, United States
Ultimo Aggiornamento: Domenica 27 Settembre 2020 18:53 CEST
Nuvoloso
Nuvoloso
 Wind from Nord
Vento: Nord 26 km/h, Raffica: 33 km/h
Temperatura: 9°C
Wind Chill: 6°C
Punto di Rugiada: 3°C
Umidità: 66%
Barometro: 984.4 hPa
Nuvole: Nuvoloso
Visibilità: 16 km
Nuvole nel Dettaglio: Parzialmente Nuvoloso 2134 m
Prevalentemente Nuvoloso 2743 m
Nuvoloso 3658 m
2020/09/27 16:53 PANC 271653Z 01014G18KT 10SM SCT070 BKN090 OVC120 09/03 A2907 RMK AO2 PRESFR SLP846 VIRGA W SH DSNT NE-E T00940028
KIAD - Washington-Dulles, Virginia, United States
Ultimo Aggiornamento: Domenica 27 Settembre 2020 18:52 CEST
Prevalentemente Nuvoloso
Prevalentemente Nuvoloso
 Wind from Sud-Sud-Est
Vento: Sud-Sud-Est 7 km/h
Temperatura: 24°C
Punto di Rugiada: 18°C
Umidità: 69%
Barometro: 1014.9 hPa
Nuvole: Prevalentemente Nuvoloso
Visibilità: 16 km
Nuvole nel Dettaglio: Prevalentemente Nuvoloso 701 m
Prevalentemente Nuvoloso 1402 m
2020/09/27 16:52 KIAD 271652Z 16004KT 10SM BKN023 BKN046 24/18 A2997 RMK AO2 SLP147 T02390178 $
KJFK - New York-JFK, New York, United States
Ultimo Aggiornamento: Domenica 27 Settembre 2020 18:51 CEST
Prevalentemente Nuvoloso
Prevalentemente Nuvoloso
 Wind from calm
Vento: Calma
Temperatura: 23°C
Punto di Rugiada: 18°C
Umidità: 74%
Barometro: 1015.9 hPa
Nuvole: Prevalentemente Nuvoloso
Visibilità: 16 km
Nuvole nel Dettaglio: Qualche Nuvola 610 m
Prevalentemente Nuvoloso 1097 m
2020/09/27 16:51 KJFK 271651Z 00000KT 10SM FEW020 BKN036 23/18 A3000 RMK AO2 SLP160 T02330183
 
KORD - Chicago, Illinois, United States
Ultimo Aggiornamento: Domenica 27 Settembre 2020 18:51 CEST
Nuvoloso
Nuvoloso
 Wind from Ovest-Sud-Ovest
Vento: Ovest-Sud-Ovest 9 km/h
Temperatura: 23°C
Punto di Rugiada: 16°C
Umidità: 65%
Barometro: 1006.8 hPa
Nuvole: Nuvoloso
Visibilità: 16 km
Nuvole nel Dettaglio: Parzialmente Nuvoloso 2896 m
Nuvoloso 7010 m
2020/09/27 16:51 KORD 271651Z 25005KT 10SM SCT095 OVC230 23/16 A2973 RMK AO2 SLP063 T02280156
KDEN - Denver, Colorado, United States
Ultimo Aggiornamento: Domenica 27 Settembre 2020 18:53 CEST
Nuvoloso
Nuvoloso
 Wind from Nord-Nord-Est
Vento: Nord-Nord-Est 24 km/h
Temperatura: 8°C
Wind Chill: 4°C
Punto di Rugiada: 1°C
Umidità: 62%
Barometro: 1024 hPa
Nuvole: Nuvoloso
Visibilità: 16 km
Nuvole nel Dettaglio: Prevalentemente Nuvoloso 1433 m
Nuvoloso 1981 m
2020/09/27 16:53 KDEN 271653Z 02013KT 10SM BKN047 OVC065 08/01 A3024 RMK AO2 PK WND 02030/1602 SLP201 T00780006
KSLC - Salt Lake City, Utah, United States
Ultimo Aggiornamento: Domenica 27 Settembre 2020 18:54 CEST
Prevalentemente Nuvoloso
Prevalentemente Nuvoloso
 Wind from Nord-Nord-Ovest
Vento: Nord-Nord-Ovest 33 km/h
Temperatura: 17°C
Punto di Rugiada: 0°C
Umidità: 32%
Barometro: 1026.8 hPa
Nuvole: Prevalentemente Nuvoloso
Visibilità: 16 km
Nuvole nel Dettaglio: Qualche Nuvola 1676 m
Qualche Nuvola 3048 m
Prevalentemente Nuvoloso 6096 m
2020/09/27 16:54 KSLC 271654Z 34018KT 10SM FEW055 FEW100 BKN200 17/00 A3032 RMK AO2 SLP235 T01670000 $
 
KBOS - Boston, Massachusetts, United States
Ultimo Aggiornamento: Domenica 27 Settembre 2020 18:54 CEST
Prevalentemente Nuvoloso
Prevalentemente Nuvoloso
 Wind from Est-Sud-Est
Vento: Est-Sud-Est 15 km/h
Temperatura: 22°C
Punto di Rugiada: 17°C
Umidità: 73%
Barometro: 1016.6 hPa
Nuvole: Prevalentemente Nuvoloso
Visibilità: 16 km
Nuvole nel Dettaglio: Parzialmente Nuvoloso 671 m
Prevalentemente Nuvoloso 1372 m
2020/09/27 16:54 KBOS 271654Z 12008KT 10SM SCT022 BKN045 22/17 A3002 RMK AO2 SLP165 T02170172
KLAX - Los Angeles, California, United States
Ultimo Aggiornamento: Domenica 27 Settembre 2020 18:53 CEST
Parzialmente Nuvoloso
Parzialmente Nuvoloso
 Wind from Nord-Nord-Ovest
Vento: Nord-Nord-Ovest 6 km/h
Temperatura: 21°C
Punto di Rugiada: 16°C
Umidità: 73%
Barometro: 1012.9 hPa
Nuvole: Parzialmente Nuvoloso
Visibilità: 16 km
Nuvole nel Dettaglio: Qualche Nuvola 518 m
Parzialmente Nuvoloso 8534 m
2020/09/27 16:53 KLAX 271653Z 33003KT 10SM FEW017 SCT280 21/16 A2991 RMK AO2 SLP125 T02110161
KLAS - Las Vegas, Nevada, United States
Ultimo Aggiornamento: Domenica 27 Settembre 2020 17:56 CEST
Parzialmente Nuvoloso
Parzialmente Nuvoloso
 Wind from Nord-Est
Vento: Nord-Est 15 km/h
Temperatura: 28°C
Punto di Rugiada: 3°C
Umidità: 20%
Barometro: 1015.9 hPa
Nuvole: Parzialmente Nuvoloso
Visibilità: 16 km
Nuvole nel Dettaglio: Qualche Nuvola 6096 m
Parzialmente Nuvoloso 7620 m
2020/09/27 15:56 KLAS 271556Z 04008KT 10SM FEW200 SCT250 28/03 A3000 RMK AO2 SLP132 HZ AND FU VC ALQDS T02830028
 
KSFO - San Francisco, California, United States
Ultimo Aggiornamento: Domenica 27 Settembre 2020 17:56 CEST
Qualche Nuvola
Qualche Nuvola
 Wind from calm
Vento: Calma
Temperatura: 21°C
Punto di Rugiada: 14°C
Umidità: 64%
Barometro: 1013.2 hPa
Nuvole: Qualche Nuvola
Visibilità: 16 km
Nuvole nel Dettaglio: Qualche Nuvola 6096 m
2020/09/27 15:56 KSFO 271556Z 00000KT 10SM FEW200 21/14 A2992 RMK AO2 SLP130 T02060139
KATL - Atlanta, Georgia, United States
Ultimo Aggiornamento: Domenica 27 Settembre 2020 18:52 CEST
Prevalentemente Nuvoloso
Prevalentemente Nuvoloso
 Wind from Sud-Sud-Ovest
Vento: Sud-Sud-Ovest 9 km/h
Temperatura: 26°C
Punto di Rugiada: 20°C
Umidità: 70%
Barometro: 1015.9 hPa
Nuvole: Prevalentemente Nuvoloso
Visibilità: 16 km
Nuvole nel Dettaglio: Parzialmente Nuvoloso 732 m
Parzialmente Nuvoloso 1280 m
Prevalentemente Nuvoloso 2134 m
Prevalentemente Nuvoloso 4572 m
2020/09/27 16:52 KATL 271652Z 21005KT 10SM SCT024 SCT042 BKN070 BKN150 26/20 A3000 RMK AO2 SLP148 MDT CU DSNT N-NE T02610200
KDFW - Dallas / Fort Worth, Texas, United States
Ultimo Aggiornamento: Domenica 27 Settembre 2020 18:53 CEST
Prevalentemente Nuvoloso
Prevalentemente Nuvoloso
 Wind from Sud
Vento: Sud 33 km/h, Raffica: 54 km/h
Temperatura: 29°C
Heat Index: 32°C
Punto di Rugiada: 22°C
Umidità: 66%
Barometro: 1007.1 hPa
Nuvole: Prevalentemente Nuvoloso
Visibilità: 16 km
Nuvole nel Dettaglio: Prevalentemente Nuvoloso 853 m
2020/09/27 16:53 KDFW 271653Z 17018G29KT 10SM BKN028 29/22 A2974 RMK AO2 PK WND 18031/1557 SLP061 T02890217
 
KMCI - Kansas City, Missouri, United States
Ultimo Aggiornamento: Domenica 27 Settembre 2020 18:53 CEST
Temporale Leggero, Pioggia, Nuvoloso
Temporale Leggero, Pioggia, Nuvoloso
 Wind from Nord
Vento: Nord 31 km/h, Raffica: 43 km/h
Temperatura: 17°C
Punto di Rugiada: 11°C
Umidità: 68%
Barometro: 1011.9 hPa
Condizioni: Temporale Leggero, Pioggia
Nuvole: Nuvoloso
Visibilità: 16 km
Nuvole nel Dettaglio: Qualche Nuvola 1372 m
Nuvoloso 2438 m
2020/09/27 16:53 KMCI 271653Z 36017G23KT 10SM -TSRA FEW045CB OVC080 17/11 A2988 RMK AO2 PK WND 03029/1618 LTG DSNT ALQDS RAE1558B38 TSB49 SLP109 TS VC SE-S MOV NE P0000 T01670111 $
KIAH - Houston, Texas, United States
Ultimo Aggiornamento: Domenica 27 Settembre 2020 18:53 CEST
Parzialmente Nuvoloso
Parzialmente Nuvoloso
 Wind from Sud
Vento: Sud 13 km/h
Temperatura: 31°C
Heat Index: 35°C
Punto di Rugiada: 22°C
Umidità: 59%
Barometro: 1010.8 hPa
Nuvole: Parzialmente Nuvoloso
Visibilità: 16 km
Nuvole nel Dettaglio: Parzialmente Nuvoloso 1067 m
2020/09/27 16:53 KIAH 271653Z 18007KT 10SM SCT035 31/22 A2985 RMK AO2 SLP107 T03060217 $
KMIA - Miami, Florida, United States
Ultimo Aggiornamento: Domenica 27 Settembre 2020 18:53 CEST
Prevalentemente Nuvoloso
Prevalentemente Nuvoloso
 Wind from Est-Sud-Est
Vento: Est-Sud-Est 13 km/h
Temperatura: 31°C
Heat Index: 36°C
Punto di Rugiada: 23°C
Umidità: 62%
Barometro: 1014.2 hPa
Nuvole: Prevalentemente Nuvoloso
Visibilità: 16 km
Nuvole nel Dettaglio: Qualche Nuvola 1036 m
Parzialmente Nuvoloso 1372 m
Prevalentemente Nuvoloso 1829 m
2020/09/27 16:53 KMIA 271653Z 12007KT 10SM FEW034 SCT045 BKN060 31/23 A2995 RMK AO2 SLP143 T03110233
 
KMSY - New Orleans, Louisiana, United States
Ultimo Aggiornamento: Domenica 27 Settembre 2020 18:53 CEST
Qualche Nuvola
Qualche Nuvola
 Wind from Nord
Vento: Nord 7 km/h
Temperatura: 29°C
Heat Index: 31°C
Punto di Rugiada: 21°C
Umidità: 62%
Barometro: 1013.5 hPa
Nuvole: Qualche Nuvola
Visibilità: 16 km
Nuvole nel Dettaglio: Qualche Nuvola 762 m
2020/09/27 16:53 KMSY 271653Z 01004KT 10SM FEW025 29/21 A2993 RMK AO2 SLP137 T02940211 $
MMMX - Mexico City, Mexico
Ultimo Aggiornamento: Domenica 27 Settembre 2020 17:45 CEST
Qualche Nuvola
Qualche Nuvola
 Wind from Nord-Nord-Est
Vento: Nord-Nord-Est 6 km/h
Temperatura: 20°C
Punto di Rugiada: 12°C
Umidità: 60%
Barometro: 1026.4 hPa
Nuvole: Qualche Nuvola
Visibilità: 10 km
Nuvole nel Dettaglio: Qualche Nuvola 610 m
2020/09/27 15:45 MMMX 271545Z 02003KT 6SM FEW020 20/12 A3031 NOSIG RMK 8/100 HZY
MUHA - Havana, Cuba
Ultimo Aggiornamento: Domenica 27 Settembre 2020 17:55 CEST
Qualche Nuvola
Qualche Nuvola
 Wind from varies
Vento: variabile 4 km/h
Temperatura: 31°C
Heat Index: 36°C
Punto di Rugiada: 23°C
Umidità: 62%
Barometro: 1015 hPa
Nuvole: Qualche Nuvola
Visibilità: 9 km
Nuvole nel Dettaglio: Qualche Nuvola 610 m
2020/09/27 15:55 MUHA 271555Z VRB02KT 9000 FEW020 31/23 Q1015